Time;durP1;ratioP1;P1;durP2;ratioP2;P2;SDS_P1;SDS_P2;PMS_P1;PMS_P2;Temp;Humidity;BMP_temperature;BMP_pressure;BME280_temperature;BME280_humidity;BME280_pressure;Samples;Min_cycle;Max_cycle;Signal;HPM_P1;HPM_P2
2022/03/09 00:00:45;;;;;;;28.60;13.40;;;;;;;2.66;69.54;101166.14;84622;1329;22583;-74
2022/03/09 00:02:54;;;;;;;26.90;13.20;;;;;;;2.68;69.52;101162.53;84649;1331;22606;-80
2022/03/09 00:05:06;;;;;;;28.40;15.30;;;;;;;2.68;69.49;101158.05;84651;1333;24374;-78
2022/03/09 00:07:15;;;;;;;28.50;13.30;;;;;;;2.67;69.47;101154.96;84611;1332;25482;-80
2022/03/09 00:09:23;;;;;;;27.70;14.30;;;;;;;2.65;69.40;101153.71;84647;1329;22714;-79
2022/03/09 00:11:35;;;;;;;26.90;14.40;;;;;;;2.63;69.45;101151.13;84629;1331;24502;-80
2022/03/09 00:13:44;;;;;;;28.50;13.90;;;;;;;2.61;69.54;101153.00;84636;1330;22608;-81
2022/03/09 00:15:56;;;;;;;24.80;13.20;;;;;;;2.57;69.56;101150.40;84627;1331;22655;-81
2022/03/09 00:18:05;;;;;;;25.80;13.30;;;;;;;2.54;69.58;101150.71;84644;1333;24233;-73
2022/03/09 00:20:15;;;;;;;24.00;11.60;;;;;;;2.52;69.60;101153.97;84604;1329;22624;-73
2022/03/09 00:22:24;;;;;;;23.50;11.40;;;;;;;2.51;69.72;101149.31;84624;1333;22587;-80
2022/03/09 00:24:33;;;;;;;21.60;11.20;;;;;;;2.51;69.81;101153.29;84645;1330;25291;-80
2022/03/09 00:26:41;;;;;;;20.30;11.70;;;;;;;2.53;69.78;101152.44;84636;1333;23011;-73
2022/03/09 00:28:50;;;;;;;20.10;11.10;;;;;;;2.54;69.90;101148.98;84635;1331;22584;-73
2022/03/09 00:30:59;;;;;;;23.80;11.60;;;;;;;2.55;69.99;101158.13;84628;1330;24272;-74
2022/03/09 00:33:11;;;;;;;21.40;11.80;;;;;;;2.57;69.99;101156.42;84645;1329;22931;-73
2022/03/09 00:35:19;;;;;;;19.20;11.30;;;;;;;2.56;69.87;101157.46;84625;1330;23875;-73
2022/03/09 00:37:28;;;;;;;25.60;12.70;;;;;;;2.56;70.21;101161.59;84572;1335;22757;-74
2022/03/09 00:39:37;;;;;;;22.90;11.70;;;;;;;2.55;69.99;101163.13;84633;1329;22799;-74
2022/03/09 00:41:46;;;;;;;17.50;11.60;;;;;;;2.53;70.03;101161.23;84623;1329;23994;-80
2022/03/09 00:43:55;;;;;;;21.80;11.10;;;;;;;2.53;69.95;101160.20;84587;1330;24247;-81
2022/03/09 00:46:14;;;;;;;23.30;12.20;;;;;;;2.50;69.97;101158.45;84566;1334;22594;-79
2022/03/09 00:48:29;;;;;;;19.10;11.10;;;;;;;2.48;70.07;101154.30;84647;1330;22549;-74
2022/03/09 00:50:38;;;;;;;22.70;11.20;;;;;;;2.47;70.01;101153.77;84645;1330;22639;-72
2022/03/09 00:52:50;;;;;;;22.00;11.10;;;;;;;2.46;70.22;101152.20;84663;1333;22599;-80
2022/03/09 00:55:00;;;;;;;24.60;11.00;;;;;;;2.46;70.04;101152.54;84645;1330;22639;-79
2022/03/09 00:57:09;;;;;;;21.50;11.10;;;;;;;2.47;70.19;101152.56;84596;1332;24019;-80
2022/03/09 00:59:18;;;;;;;24.80;12.40;;;;;;;2.48;70.27;101152.22;84654;1327;22596;-80
2022/03/09 01:01:30;;;;;;;26.90;13.30;;;;;;;2.49;70.08;101154.46;84611;1331;22842;-73
2022/03/09 01:03:42;;;;;;;26.00;12.60;;;;;;;2.51;70.22;101152.08;84566;1335;22865;-72
2022/03/09 01:05:50;;;;;;;25.10;12.90;;;;;;;2.49;70.21;101147.05;84634;1329;22607;-72
2022/03/09 01:08:02;;;;;;;23.80;12.40;;;;;;;2.49;70.11;101145.86;84632;1327;22725;-80
2022/03/09 01:10:12;;;;;;;21.40;12.00;;;;;;;2.47;70.14;101146.53;84612;1330;22625;-80
2022/03/09 01:12:21;;;;;;;23.50;12.50;;;;;;;2.45;70.08;101143.41;84620;1328;22720;-71
2022/03/09 01:14:32;;;;;;;27.00;12.30;;;;;;;2.44;70.08;101145.65;84619;1329;22905;-73
2022/03/09 01:16:41;;;;;;;23.00;12.20;;;;;;;2.43;70.13;101141.52;84641;1324;22588;-73
2022/03/09 01:18:53;;;;;;;23.70;12.60;;;;;;;2.42;70.09;101136.50;84644;1330;27085;-73
2022/03/09 01:21:06;;;;;;;25.00;11.40;;;;;;;2.42;70.09;101135.30;84627;1332;22610;-74
2022/03/09 01:23:15;;;;;;;23.60;12.70;;;;;;;2.44;70.16;101135.83;84638;1330;22817;-74
2022/03/09 01:25:27;;;;;;;23.50;12.80;;;;;;;2.45;70.22;101136.86;84635;1330;24233;-72
2022/03/09 01:27:36;;;;;;;27.00;14.00;;;;;;;2.46;70.23;101132.23;84643;1329;25995;-80
2022/03/09 01:29:45;;;;;;;26.90;14.70;;;;;;;2.49;70.27;101132.59;84566;1331;24246;-80
2022/03/09 01:31:53;;;;;;;31.70;14.40;;;;;;;2.51;70.19;101131.41;84595;1333;22658;-73
2022/03/09 01:34:03;;;;;;;25.80;13.70;;;;;;;2.53;70.25;101134.70;84630;1333;22604;-72
2022/03/09 01:36:14;;;;;;;31.70;14.50;;;;;;;2.53;70.26;101136.08;84641;1330;22676;-77
2022/03/09 01:38:26;;;;;;;29.60;13.60;;;;;;;2.50;70.12;101136.05;84635;1327;22593;-81
2022/03/09 01:40:38;;;;;;;25.00;14.20;;;;;;;2.48;70.00;101135.00;84578;1335;22592;-80
2022/03/09 01:42:47;;;;;;;29.00;13.40;;;;;;;2.47;70.17;101133.27;84665;1330;22584;-72
2022/03/09 01:44:55;;;;;;;26.70;12.80;;;;;;;2.48;70.11;101132.08;84605;1329;22583;-71
2022/03/09 01:47:08;;;;;;;24.00;12.40;;;;;;;2.46;70.30;101126.38;84580;1330;22827;-73
2022/03/09 01:49:19;;;;;;;24.30;11.60;;;;;;;2.47;70.23;101129.48;84637;1333;23013;-73
2022/03/09 01:51:30;;;;;;;22.90;12.00;;;;;;;2.48;70.11;101124.67;84593;1335;22586;-73
2022/03/09 01:53:42;;;;;;;19.00;11.40;;;;;;;2.50;70.11;101121.75;84635;1330;22722;-73
2022/03/09 01:55:51;;;;;;;23.60;11.50;;;;;;;2.51;70.19;101115.73;84617;1330;22595;-72
2022/03/09 01:58:03;;;;;;;18.00;12.00;;;;;;;2.52;70.18;101121.78;84615;1331;22606;-79
2022/03/09 02:00:14;;;;;;;21.00;11.60;;;;;;;2.54;70.12;101122.13;84636;1329;22653;-80
2022/03/09 02:02:26;;;;;;;19.20;12.10;;;;;;;2.55;70.09;101124.20;84633;1330;23786;-73
2022/03/09 02:04:34;;;;;;;25.10;12.40;;;;;;;2.54;70.07;101126.95;84626;1327;22596;-73
2022/03/09 02:06:44;;;;;;;23.90;11.20;;;;;;;2.54;70.02;101124.88;84604;1330;24306;-79
2022/03/09 02:11:19;;;;;;;25.80;13.10;;;;;;;2.54;70.07;101119.02;84605;1330;24062;-73
2022/03/09 02:13:28;;;;;;;20.70;12.10;;;;;;;2.53;70.00;101114.72;84637;1329;22580;-71
2022/03/09 02:15:37;;;;;;;19.90;10.60;;;;;;;2.52;69.85;101105.77;84626;1333;22622;-73
2022/03/09 02:17:49;;;;;;;18.90;10.90;;;;;;;2.53;69.87;101101.64;84659;1329;22736;-80
2022/03/09 02:19:59;;;;;;;17.60;10.30;;;;;;;2.54;69.75;101105.59;84644;1331;22603;-79
2022/03/09 02:22:11;;;;;;;17.90;10.20;;;;;;;2.55;69.79;101103.87;84653;1325;22611;-74
2022/03/09 02:24:20;;;;;;;18.40;11.00;;;;;;;2.57;69.78;101099.25;84593;1331;22627;-73
2022/03/09 02:26:33;;;;;;;23.80;11.50;;;;;;;2.59;69.90;101101.83;84597;1329;22600;-79
2022/03/09 02:28:45;;;;;;;20.00;11.20;;;;;;;2.62;69.88;101102.55;84626;1325;22616;-80
2022/03/09 02:30:58;;;;;;;18.80;10.10;;;;;;;2.62;69.72;101105.31;84637;1329;23922;-79
2022/03/09 02:33:10;;;;;;;20.00;11.30;;;;;;;2.62;69.81;101104.44;84564;1329;22600;-75
2022/03/09 02:35:22;;;;;;;18.70;10.50;;;;;;;2.61;69.71;101112.89;84625;1331;26529;-73
2022/03/09 02:37:34;;;;;;;19.40;10.80;;;;;;;2.61;69.68;101113.73;84628;1327;22729;-80
2022/03/09 02:39:46;;;;;;;18.40;11.30;;;;;;;2.62;69.51;101110.64;84651;1321;22603;-81
2022/03/09 02:41:58;;;;;;;16.40;10.30;;;;;;;2.61;69.55;101112.70;84638;1330;22629;-80
2022/03/09 02:44:10;;;;;;;19.90;11.50;;;;;;;2.60;69.47;101112.17;84613;1326;24128;-80
2022/03/09 02:46:22;;;;;;;21.70;11.00;;;;;;;2.58;69.46;101110.79;84664;1329;22618;-73
2022/03/09 02:48:31;;;;;;;19.50;10.40;;;;;;;2.57;69.40;101112.16;84591;1327;22614;-73
2022/03/09 02:50:40;;;;;;;18.80;10.70;;;;;;;2.56;69.44;101110.60;84604;1331;25419;-73
2022/03/09 02:52:52;;;;;;;19.90;10.20;;;;;;;2.55;69.48;101112.84;84618;1330;22599;-73
2022/03/09 02:55:04;;;;;;;19.20;10.10;;;;;;;2.56;69.43;101110.61;84638;1331;25454;-73
2022/03/09 02:57:13;;;;;;;21.20;10.20;;;;;;;2.56;69.55;101106.13;84615;1329;23948;-73
2022/03/09 02:59:22;;;;;;;22.20;10.00;;;;;;;2.58;69.52;101104.23;84640;1331;22583;-73
2022/03/09 03:01:31;;;;;;;20.70;10.70;;;;;;;2.60;69.50;101103.38;84668;1329;22587;-73
2022/03/09 03:03:43;;;;;;;21.20;11.50;;;;;;;2.62;69.59;101101.70;84559;1333;22870;-73
2022/03/09 03:05:52;;;;;;;23.80;10.40;;;;;;;2.62;69.57;101102.73;84651;1330;22590;-73
2022/03/09 03:08:04;;;;;;;20.40;10.70;;;;;;;2.63;69.40;101105.14;84534;1333;22594;-80
2022/03/09 03:10:14;;;;;;;17.00;10.20;;;;;;;2.64;69.32;101103.77;84629;1329;23962;-79
2022/03/09 03:12:22;;;;;;;20.00;10.20;;;;;;;2.64;69.41;101099.45;84627;1333;22600;-80
2022/03/09 03:14:34;;;;;;;19.50;10.50;;;;;;;2.62;69.41;101099.44;84637;1330;22586;-80
2022/03/09 03:16:45;;;;;;;18.90;10.90;;;;;;;2.60;69.29;101095.48;84671;1329;22614;-79
2022/03/09 03:18:57;;;;;;;18.00;11.10;;;;;;;2.57;69.34;101095.63;84647;1329;24284;-81
2022/03/09 03:21:09;;;;;;;17.40;10.10;;;;;;;2.54;69.26;101090.78;84625;1330;22592;-78
2022/03/09 03:23:21;;;;;;;18.10;9.80;;;;;;;2.50;69.35;101088.52;84559;1330;23941;-70
2022/03/09 03:25:30;;;;;;;19.80;9.90;;;;;;;2.49;69.39;101085.41;84633;1333;24285;-71
2022/03/09 03:27:39;;;;;;;17.80;9.70;;;;;;;2.50;69.42;101085.42;84550;1327;22564;-71
2022/03/09 03:29:51;;;;;;;17.40;10.50;;;;;;;2.52;69.37;101086.64;84622;1330;24088;-71
2022/03/09 03:31:59;;;;;;;22.00;10.50;;;;;;;2.54;69.52;101086.47;84570;1331;22600;-71
2022/03/09 03:34:11;;;;;;;23.20;12.40;;;;;;;2.55;69.49;101090.96;84615;1330;23133;-71
2022/03/09 03:36:20;;;;;;;21.50;13.00;;;;;;;2.54;69.59;101089.41;84599;1331;23074;-73
2022/03/09 03:38:32;;;;;;;18.40;11.30;;;;;;;2.54;69.53;101089.58;84638;1330;22573;-73
2022/03/09 03:40:41;;;;;;;22.80;12.00;;;;;;;2.55;69.56;101089.91;84634;1327;24351;-70
2022/03/09 03:42:50;;;;;;;23.10;11.00;;;;;;;2.55;69.43;101089.58;84635;1327;22701;-72
2022/03/09 03:44:59;;;;;;;26.30;12.70;;;;;;;2.53;69.37;101085.77;84621;1333;24274;-72
2022/03/09 03:47:09;;;;;;;29.10;12.90;;;;;;;2.50;69.44;101086.45;84644;1330;24311;-80
2022/03/09 03:49:21;;;;;;;28.00;13.30;;;;;;;2.47;69.33;101087.64;84647;1330;22763;-79
2022/03/09 03:51:30;;;;;;;28.10;13.50;;;;;;;2.44;69.39;101084.35;84664;1328;22610;-78
2022/03/09 03:53:42;;;;;;;22.90;11.80;;;;;;;2.41;69.42;101085.52;84602;1331;25417;-81
2022/03/09 03:55:54;;;;;;;20.10;10.60;;;;;;;2.39;69.43;101084.48;84614;1330;24100;-80
2022/03/09 03:58:03;;;;;;;19.90;10.80;;;;;;;2.37;69.60;101077.07;84638;1330;22612;-73
2022/03/09 04:00:17;;;;;;;23.50;11.50;;;;;;;2.37;69.51;101073.79;84638;1329;24334;-73
2022/03/09 04:02:29;;;;;;;19.90;10.90;;;;;;;2.39;69.53;101072.95;84556;1332;25444;-80
2022/03/09 04:04:41;;;;;;;17.90;10.70;;;;;;;2.40;69.65;101074.33;84608;1331;22575;-81
2022/03/09 04:06:52;;;;;;;22.10;12.60;;;;;;;2.41;69.67;101072.44;84576;1330;22651;-74
2022/03/09 04:09:04;;;;;;;18.50;11.10;;;;;;;2.41;69.67;101073.13;84633;1325;23056;-73
2022/03/09 04:11:16;;;;;;;19.10;11.30;;;;;;;2.40;69.66;101077.94;84551;1332;22736;-77
2022/03/09 04:13:25;;;;;;;20.20;11.30;;;;;;;2.39;69.75;101085.69;84585;1332;22605;-72
2022/03/09 04:15:34;;;;;;;19.90;11.20;;;;;;;2.38;69.72;101093.78;84630;1327;23070;-73
2022/03/09 04:17:48;;;;;;;21.30;11.20;;;;;;;2.36;69.67;101098.75;84572;1329;22841;-80
2022/03/09 04:19:56;;;;;;;18.70;12.50;;;;;;;2.35;69.65;101098.05;84638;1329;22602;-80
2022/03/09 04:22:07;;;;;;;16.00;10.80;;;;;;;2.33;69.81;101097.88;84586;1330;22759;-80
2022/03/09 04:24:15;;;;;;;22.80;11.40;;;;;;;2.31;69.69;101091.99;84537;1331;22668;-80
2022/03/09 04:26:25;;;;;;;18.20;10.80;;;;;;;2.30;69.80;101093.38;84670;1329;24385;-73
2022/03/09 04:28:34;;;;;;;21.30;12.20;;;;;;;2.30;69.76;101090.10;84660;1330;22613;-74
2022/03/09 04:30:44;;;;;;;18.90;11.90;;;;;;;2.29;69.85;101084.59;84631;1330;24055;-73
2022/03/09 04:32:53;;;;;;;24.50;10.60;;;;;;;2.30;69.90;101079.08;84653;1326;22617;-73
2022/03/09 04:35:06;;;;;;;17.90;11.30;;;;;;;2.31;69.93;101079.10;84567;1330;22599;-73
2022/03/09 04:37:18;;;;;;;19.50;10.90;;;;;;;2.31;69.82;101082.54;84615;1325;22864;-79
2022/03/09 04:39:30;;;;;;;19.00;10.90;;;;;;;2.32;69.91;101083.76;84557;1331;22616;-80
2022/03/09 04:41:42;;;;;;;24.50;11.50;;;;;;;2.32;69.94;101081.85;84647;1330;26519;-80
2022/03/09 04:43:55;;;;;;;21.30;12.60;;;;;;;2.32;69.90;101080.14;84620;1329;23984;-80
2022/03/09 04:46:04;;;;;;;22.30;12.60;;;;;;;2.31;70.07;101079.09;84644;1330;22616;-80
2022/03/09 04:48:13;;;;;;;19.80;11.10;;;;;;;2.29;69.98;101082.00;84639;1331;22600;-73
2022/03/09 04:50:26;;;;;;;24.10;11.50;;;;;;;2.26;69.86;101077.84;84568;1331;22766;-72
2022/03/09 04:52:35;;;;;;;26.60;14.30;;;;;;;2.23;69.92;101081.96;84686;1330;22647;-74
2022/03/09 04:54:44;;;;;;;23.50;14.40;;;;;;;2.20;69.89;101085.55;84635;1330;22609;-74
2022/03/09 04:56:52;;;;;;;23.40;13.70;;;;;;;2.18;70.06;101090.70;84665;1330;22651;-80
2022/03/09 04:59:01;;;;;;;26.60;15.10;;;;;;;2.18;70.09;101091.56;84649;1329;22763;-81
2022/03/09 05:01:13;;;;;;;25.30;13.50;;;;;;;2.19;70.14;101092.95;84640;1325;22597;-81
2022/03/09 05:03:22;;;;;;;25.70;12.40;;;;;;;2.21;70.24;101092.60;84637;1330;22587;-73
2022/03/09 05:05:34;;;;;;;23.00;13.60;;;;;;;2.21;70.15;101089.16;84620;1330;22596;-73
2022/03/09 05:07:44;;;;;;;22.40;13.00;;;;;;;2.22;70.38;101092.81;84612;1325;22926;-80
2022/03/09 05:09:56;;;;;;;20.80;11.90;;;;;;;2.24;70.43;101094.36;84657;1329;22614;-80
2022/03/09 05:12:09;;;;;;;21.90;12.60;;;;;;;2.25;70.34;101102.45;84611;1330;22597;-81
2022/03/09 05:14:18;;;;;;;26.50;13.80;;;;;;;2.26;70.40;101106.94;84645;1330;22709;-81
2022/03/09 05:16:30;;;;;;;24.00;13.40;;;;;;;2.25;70.26;101109.52;84659;1329;23983;-80
2022/03/09 05:18:42;;;;;;;26.40;12.40;;;;;;;2.25;70.26;101116.74;84629;1329;22605;-80
2022/03/09 05:20:54;;;;;;;25.90;13.10;;;;;;;2.27;70.37;101118.83;84582;1330;22618;-80
2022/03/09 05:23:06;;;;;;;26.00;13.50;;;;;;;2.27;70.30;101122.79;84543;1327;22757;-79
2022/03/09 05:25:19;;;;;;;20.90;12.00;;;;;;;2.25;70.24;101124.48;84573;1331;25470;-80
2022/03/09 05:27:31;;;;;;;22.00;12.30;;;;;;;2.26;70.27;101131.73;84657;1323;24186;-72
2022/03/09 05:29:43;;;;;;;24.40;12.50;;;;;;;2.26;70.26;101132.25;83924;1329;1003733;-72
2022/03/09 05:31:56;;;;;;;25.50;12.70;;;;;;;2.25;70.37;101134.48;84596;1331;22673;-73
2022/03/09 05:34:07;;;;;;;19.00;10.90;;;;;;;2.27;70.41;101133.65;84622;1333;22621;-72
2022/03/09 05:36:19;;;;;;;21.30;11.90;;;;;;;2.30;70.54;101136.23;84565;1330;22943;-73
2022/03/09 05:38:31;;;;;;;19.90;11.30;;;;;;;2.33;70.45;101144.02;84633;1329;22610;-72
2022/03/09 05:40:41;;;;;;;21.40;11.60;;;;;;;2.37;70.41;101146.80;84631;1333;25324;-73
2022/03/09 05:42:54;;;;;;;22.70;12.80;;;;;;;2.43;70.48;101150.13;84645;1330;22585;-79
2022/03/09 05:45:03;;;;;;;22.00;12.50;;;;;;;2.46;70.37;101146.86;82223;1330;3396938;-79
2022/03/09 05:47:12;;;;;;;22.70;13.10;;;;;;;2.47;70.35;101142.23;84666;1329;24553;-78
2022/03/09 05:49:21;;;;;;;20.90;11.90;;;;;;;2.49;70.30;101143.27;84610;1330;25453;-79
2022/03/09 05:51:30;;;;;;;25.20;14.00;;;;;;;2.49;70.24;101146.04;84656;1330;23890;-73
2022/03/09 05:53:42;;;;;;;26.50;13.50;;;;;;;2.50;70.20;101144.13;84539;1333;22591;-73
2022/03/09 05:55:54;;;;;;;23.30;13.10;;;;;;;2.51;70.26;101146.56;84624;1330;25441;-72
2022/03/09 05:58:06;;;;;;;24.70;13.10;;;;;;;2.51;70.16;101152.42;84590;1333;22610;-79
2022/03/09 06:00:18;;;;;;;20.10;13.00;;;;;;;2.50;70.18;101153.63;84652;1329;22697;-80
2022/03/09 06:02:26;;;;;;;;;;;;;;;2.51;70.02;101152.77;84648;1325;22596;-72
2022/03/09 06:04:38;;;;;;;22.70;14.30;;;;;;;2.49;70.00;101153.27;84631;1329;23899;-72
2022/03/09 06:06:50;;;;;;;24.80;12.70;;;;;;;2.51;69.99;101150.88;84588;1330;22625;-73
2022/03/09 06:08:59;;;;;;;24.10;13.10;;;;;;;2.53;70.14;101153.30;84561;1330;23844;-72
2022/03/09 06:11:08;;;;;;;24.20;12.70;;;;;;;2.56;70.20;101151.59;84534;1330;22587;-73
2022/03/09 06:13:17;;;;;;;24.10;11.60;;;;;;;2.59;70.18;101149.38;83928;1330;1003174;-73
2022/03/09 06:15:30;;;;;;;25.10;12.40;;;;;;;2.65;70.01;101152.16;84632;1331;22600;-72
2022/03/09 06:17:49;;;;;;;24.00;12.60;;;;;;;2.70;69.79;101152.20;84592;1327;22849;-74
2022/03/09 06:19:59;;;;;;;20.90;12.60;;;;;;;2.77;69.85;101150.54;84724;1315;22615;-73
2022/03/09 06:22:08;;;;;;;19.50;12.10;;;;;;;2.85;69.60;101155.24;84710;1328;22619;-73
2022/03/09 06:24:18;;;;;;;23.30;12.70;;;;;;;2.90;69.58;101152.52;84703;1330;22617;-79
2022/03/09 06:26:27;;;;;;;21.70;12.40;;;;;;;2.96;69.36;101152.72;84717;1327;22607;-79
2022/03/09 06:28:37;;;;;;;22.60;12.50;;;;;;;3.01;69.19;101156.02;84682;1325;22584;-79
2022/03/09 06:30:48;;;;;;;24.30;12.50;;;;;;;3.03;68.97;101159.30;84684;1328;22877;-74
2022/03/09 06:32:58;;;;;;;23.90;12.30;;;;;;;3.05;68.76;101159.30;84627;1329;22577;-73
2022/03/09 06:35:08;;;;;;;20.30;11.90;;;;;;;3.04;68.59;101163.45;84665;1327;22692;-79
2022/03/09 06:37:15;;;;;;;;;;;;;;;3.05;68.47;101163.10;84680;1330;22681;-79
2022/03/09 06:39:29;;;;;;;20.40;11.80;;;;;;;3.04;68.35;101166.02;84656;1330;24239;-74
2022/03/09 06:41:38;;;;;;;23.50;12.20;;;;;;;3.07;68.36;101164.84;84671;1324;22584;-72
2022/03/09 06:43:50;;;;;;;17.70;10.50;;;;;;;3.09;68.24;101167.77;84619;1330;24369;-72
2022/03/09 06:45:59;;;;;;;17.90;9.80;;;;;;;3.12;68.25;101169.52;84688;1328;25297;-77
2022/03/09 06:48:08;;;;;;;17.60;10.10;;;;;;;3.13;67.68;101172.63;84640;1325;22973;-79
2022/03/09 06:50:20;;;;;;;19.00;11.30;;;;;;;3.14;67.70;101173.66;84681;1330;22843;-79
2022/03/09 06:52:29;;;;;;;18.50;10.60;;;;;;;3.19;67.74;101174.72;84684;1328;25326;-79
2022/03/09 06:54:39;;;;;;;17.70;10.60;;;;;;;3.24;67.52;101176.46;84540;1324;24238;-74
2022/03/09 06:56:52;;;;;;;20.50;10.80;;;;;;;3.29;67.44;101174.60;84544;1330;23900;-73
2022/03/09 06:59:01;;;;;;;20.60;10.40;;;;;;;3.37;67.38;101171.02;84674;1331;25314;-73
2022/03/09 07:01:10;;;;;;;15.00;9.10;;;;;;;3.47;67.41;101173.81;84658;1325;22584;-73
2022/03/09 07:03:18;;;;;;;17.20;10.00;;;;;;;3.60;67.29;101169.39;84591;1329;23060;-73
2022/03/09 07:05:27;;;;;;;16.50;9.50;;;;;;;3.79;67.00;101168.57;84685;1332;22619;-78
2022/03/09 07:07:36;;;;;;;16.10;8.70;;;;;;;4.01;66.53;101166.38;84651;1329;22629;-79
2022/03/09 07:09:45;;;;;;;13.40;8.70;;;;;;;4.23;66.60;101162.95;84704;1330;23896;-78
2022/03/09 07:11:57;;;;;;;75.80;37.30;;;;;;;4.50;66.02;101163.13;84631;1329;24318;-80
2022/03/09 07:14:09;;;;;;;27.20;15.20;;;;;;;4.82;65.50;101157.73;84659;1329;25420;-78
2022/03/09 07:16:21;;;;;;;12.20;8.40;;;;;;;5.16;64.98;101158.84;84662;1329;22591;-73
2022/03/09 07:18:30;;;;;;;17.10;10.30;;;;;;;5.45;64.13;101158.92;84688;1328;24271;-74
2022/03/09 07:20:40;;;;;;;16.20;9.10;;;;;;;5.58;62.96;101152.62;84604;1332;22861;-82
2022/03/09 07:22:49;;;;;;;13.90;8.60;;;;;;;5.61;62.86;101149.66;84677;1329;23917;-80
2022/03/09 07:24:58;;;;;;;13.70;7.00;;;;;;;5.64;61.83;101146.20;84706;1324;23035;-74
2022/03/09 07:27:10;;;;;;;10.70;7.00;;;;;;;5.61;60.58;101151.75;84523;1327;22810;-72
2022/03/09 07:29:20;;;;;;;17.00;7.40;;;;;;;5.58;61.00;101148.48;84626;1330;22773;-77
2022/03/09 07:31:32;;;;;;;13.40;7.60;;;;;;;5.61;61.23;101146.39;84697;1330;22652;-78
2022/03/09 07:33:43;;;;;;;15.30;8.00;;;;;;;5.64;60.47;101142.89;84609;1325;22711;-79
2022/03/09 07:35:56;;;;;;;14.80;7.30;;;;;;;5.64;59.41;101138.58;84685;1325;22576;-73
2022/03/09 07:38:10;;;;;;;11.80;6.40;;;;;;;5.63;59.31;101136.16;84623;1329;22891;-74
2022/03/09 07:40:22;;;;;;;13.70;7.40;;;;;;;5.65;59.33;101138.40;84691;1329;22586;-73
2022/03/09 07:42:34;;;;;;;16.00;8.30;;;;;;;5.70;59.57;101135.77;84604;1330;25275;-73
2022/03/09 07:44:43;;;;;;;19.20;8.50;;;;;;;5.77;59.52;101133.66;84632;1330;24243;-79
2022/03/09 07:46:52;;;;;;;12.80;7.30;;;;;;;5.86;59.51;101134.64;84559;1331;22689;-80
2022/03/09 07:49:04;;;;;;;13.60;7.00;;;;;;;5.93;58.82;101131.34;84665;1329;22589;-81
2022/03/09 07:51:13;;;;;;;13.50;6.90;;;;;;;5.98;58.72;101132.01;84606;1330;23633;-72
2022/03/09 07:53:22;;;;;;;10.20;6.70;;;;;;;6.03;58.61;101128.14;84662;1329;22650;-71
2022/03/09 07:55:35;;;;;;;12.60;7.90;;;;;;;6.10;58.19;101124.46;84626;1330;25460;-74
2022/03/09 07:57:44;;;;;;;12.20;7.90;;;;;;;6.17;58.15;101127.70;84674;1329;24920;-74
2022/03/09 07:59:53;;;;;;;14.50;6.80;;;;;;;6.26;58.13;101126.93;84587;1329;24078;-73
2022/03/09 08:02:02;;;;;;;11.50;6.40;;;;;;;6.34;58.08;101125.82;84608;1330;25266;-71
2022/03/09 08:04:13;;;;;;;10.00;6.40;;;;;;;6.40;57.14;101125.77;84673;1330;22867;-76
2022/03/09 08:06:25;;;;;;;11.60;5.20;;;;;;;6.44;56.69;101124.34;84592;1329;23930;-79
2022/03/09 08:08:34;;;;;;;18.40;5.60;;;;;;;6.48;56.33;101127.95;84608;1329;25283;-79
2022/03/09 08:10:43;;;;;;;12.00;6.30;;;;;;;6.52;56.43;101129.13;84626;1330;22557;-73
2022/03/09 08:12:52;;;;;;;9.00;5.30;;;;;;;6.61;56.32;101129.41;83973;1332;1003981;-71
2022/03/09 08:15:04;;;;;;;11.00;5.80;;;;;;;6.68;56.63;101131.05;84634;1328;22592;-72
2022/03/09 08:17:13;;;;;;;10.10;4.90;;;;;;;6.77;55.56;101133.57;84663;1328;22609;-75
2022/03/09 08:19:22;;;;;;;11.70;6.00;;;;;;;6.84;55.45;101136.96;84621;1329;23895;-79
2022/03/09 08:21:34;;;;;;;11.20;5.60;;;;;;;6.92;55.01;101134.98;84671;1330;25487;-78
2022/03/09 08:23:46;;;;;;;8.50;6.10;;;;;;;6.98;54.91;101136.98;84612;1329;25450;-79
2022/03/09 08:25:55;;;;;;;10.30;5.30;;;;;;;7.03;54.30;101138.67;83974;1330;1003840;-73
2022/03/09 08:28:08;;;;;;;11.90;5.40;;;;;;;7.03;54.42;101137.45;84679;1329;22547;-72
2022/03/09 08:30:18;;;;;;;10.50;6.30;;;;;;;7.07;54.40;101136.54;84627;1330;22652;-73
2022/03/09 08:32:27;;;;;;;8.30;5.20;;;;;;;7.12;53.91;101131.11;84608;1329;25902;-73
2022/03/09 08:34:40;;;;;;;13.30;5.70;;;;;;;7.15;53.43;101130.05;84617;1329;24984;-72
2022/03/09 08:36:49;;;;;;;8.50;5.40;;;;;;;7.22;53.37;101134.80;84623;1329;25437;-79
2022/03/09 08:39:02;;;;;;;9.50;5.60;;;;;;;7.33;53.39;101136.42;84666;1329;23917;-79
2022/03/09 08:41:15;;;;;;;8.90;5.00;;;;;;;7.44;52.61;101134.72;84604;1330;22595;-78
2022/03/09 08:43:28;;;;;;;7.90;4.20;;;;;;;7.49;51.67;101137.43;84522;1333;22607;-79
2022/03/09 08:45:36;;;;;;;6.90;4.00;;;;;;;7.55;52.15;101140.48;84649;1321;22600;-78
2022/03/09 08:47:46;;;;;;;7.30;4.80;;;;;;;7.61;51.63;101137.43;84672;1330;22600;-78
2022/03/09 08:49:58;;;;;;;8.40;4.80;;;;;;;7.69;52.09;101139.94;84586;1330;22613;-73
2022/03/09 08:52:09;;;;;;;6.20;4.50;;;;;;;7.82;52.07;101143.22;84579;1332;22645;-72
2022/03/09 08:54:27;;;;;;;7.50;4.00;;;;;;;7.93;51.78;101142.88;85561;1314;24267;-71
2022/03/09 08:56:36;;;;;;;4.80;3.80;;;;;;;8.00;51.19;101139.83;84818;1327;23222;-72
2022/03/09 08:58:45;;;;;;;8.30;4.50;;;;;;;8.06;50.90;101143.20;84816;1326;25605;-73
2022/03/09 09:00:54;;;;;;;9.60;5.20;;;;;;;8.14;51.21;101141.54;84789;1326;24244;-73
2022/03/09 09:03:06;;;;;;;6.30;4.50;;;;;;;8.23;50.57;101139.83;84812;1328;25284;-73
2022/03/09 09:05:23;;;;;;;7.50;3.50;;;;;;;8.29;50.46;101142.67;84726;1327;22588;-73
2022/03/09 09:07:32;;;;;;;6.00;3.00;;;;;;;8.33;49.86;101138.61;84669;1328;23021;-74
2022/03/09 09:09:44;;;;;;;5.20;3.20;;;;;;;8.37;50.09;101140.84;84737;1327;22601;-73
2022/03/09 09:11:54;;;;;;;5.00;2.90;;;;;;;8.42;49.48;101140.41;84747;1327;25453;-73
2022/03/09 09:14:05;;;;;;;16.10;3.20;;;;;;;8.43;49.35;101140.74;84788;1327;22665;-74
2022/03/09 09:16:14;;;;;;;6.30;3.00;;;;;;;8.43;49.21;101140.58;84697;1327;22773;-74
2022/03/09 09:18:27;;;;;;;7.60;2.50;;;;;;;8.46;48.23;101138.95;84725;1328;22578;-74
2022/03/09 09:20:36;;;;;;;3.10;1.90;;;;;;;8.46;48.59;101140.85;84719;1327;22587;-74
2022/03/09 09:22:46;;;;;;;4.00;2.30;;;;;;;8.51;47.91;101141.99;84764;1327;22800;-76
2022/03/09 09:24:56;;;;;;;;;;;;;;;8.54;47.84;101140.21;84777;1327;23811;-75
2022/03/09 09:27:08;;;;;;;5.10;2.20;;;;;;;8.56;47.88;101138.42;84749;1321;22601;-75
2022/03/09 09:29:20;;;;;;;4.70;2.20;;;;;;;8.61;47.61;101142.17;84701;1327;24244;-72
2022/03/09 09:31:29;;;;;;;5.30;2.30;;;;;;;8.65;47.45;101135.48;84761;1325;22644;-73
2022/03/09 09:33:40;;;;;;;6.00;3.10;;;;;;;8.71;47.13;101131.73;84703;1328;23774;-75
2022/03/09 09:35:50;;;;;;;5.90;2.60;;;;;;;8.75;47.06;101132.17;84741;1322;22589;-79
2022/03/09 09:38:06;;;;;;;5.90;2.40;;;;;;;8.82;47.16;101134.66;84705;1325;22597;-78
2022/03/09 09:40:18;;;;;;;3.70;2.30;;;;;;;8.88;47.08;101129.67;84702;1329;22593;-74
2022/03/09 09:42:30;;;;;;;5.30;3.70;;;;;;;8.99;47.37;101133.65;84779;1327;22595;-76
2022/03/09 09:44:44;;;;;;;5.60;3.10;;;;;;;9.11;46.89;101134.27;84739;1326;25440;-71
2022/03/09 09:46:56;;;;;;;6.90;3.50;;;;;;;9.15;46.50;101134.19;84719;1328;23880;-75
2022/03/09 09:49:08;;;;;;;10.10;3.40;;;;;;;9.16;46.37;101134.88;84754;1327;22660;-71
2022/03/09 09:51:17;;;;;;;3.50;2.50;;;;;;;9.20;46.20;101136.01;84769;1323;22594;-71
2022/03/09 09:53:26;;;;;;;3.80;2.50;;;;;;;9.19;45.75;101138.11;84758;1327;25435;-71
2022/03/09 09:55:35;;;;;;;7.10;2.60;;;;;;;9.18;46.03;101137.09;84711;1330;22774;-79
2022/03/09 09:57:50;;;;;;;4.00;3.40;;;;;;;9.20;45.50;101142.63;84751;1327;24012;-79
2022/03/09 09:59:59;;;;;;;12.10;4.90;;;;;;;9.26;46.13;101148.05;84744;1328;22627;-77
2022/03/09 10:02:09;;;;;;;5.10;2.80;;;;;;;9.35;45.57;101146.67;84778;1322;22722;-78
2022/03/09 10:04:19;;;;;;;7.60;2.80;;;;;;;9.38;45.32;101153.92;84701;1327;23924;-72
2022/03/09 10:06:27;;;;;;;5.70;3.40;;;;;;;9.32;45.11;101154.23;84711;1331;25377;-73